sensor_id;sensor_type;location;lat;lon;timestamp;pressure;altitude;pressure_sealevel;temperature;humidity
8894;BME280;4483;48.622;9.230;2024-02-26T00:02:25;96014.19;;;5.11;93.64
8894;BME280;4483;48.622;9.230;2024-02-26T00:04:52;96022.00;;;5.08;93.81
8894;BME280;4483;48.622;9.230;2024-02-26T00:07:18;96015.31;;;5.06;94.10
8894;BME280;4483;48.622;9.230;2024-02-26T00:09:45;96016.75;;;5.11;94.41
8894;BME280;4483;48.622;9.230;2024-02-26T00:12:12;96016.53;;;5.16;94.41
8894;BME280;4483;48.622;9.230;2024-02-26T00:14:38;96011.56;;;5.13;94.35
8894;BME280;4483;48.622;9.230;2024-02-26T00:17:06;96014.88;;;5.15;94.51
8894;BME280;4483;48.622;9.230;2024-02-26T00:19:35;96013.22;;;5.14;94.70
8894;BME280;4483;48.622;9.230;2024-02-26T00:22:01;96020.06;;;5.13;94.29
8894;BME280;4483;48.622;9.230;2024-02-26T00:24:28;96021.94;;;5.10;95.52
8894;BME280;4483;48.622;9.230;2024-02-26T00:26:54;96023.72;;;5.08;94.88
8894;BME280;4483;48.622;9.230;2024-02-26T00:29:21;96016.00;;;5.09;94.68
8894;BME280;4483;48.622;9.230;2024-02-26T00:31:48;96007.53;;;5.09;95.08
8894;BME280;4483;48.622;9.230;2024-02-26T00:34:15;96008.81;;;5.18;95.91
8894;BME280;4483;48.622;9.230;2024-02-26T00:36:43;96007.00;;;5.20;95.05
8894;BME280;4483;48.622;9.230;2024-02-26T00:39:11;96004.66;;;5.15;95.29
8894;BME280;4483;48.622;9.230;2024-02-26T00:41:38;95999.63;;;5.13;95.17
8894;BME280;4483;48.622;9.230;2024-02-26T00:44:05;96015.78;;;5.14;95.76
8894;BME280;4483;48.622;9.230;2024-02-26T00:46:31;95999.56;;;5.15;95.75
8894;BME280;4483;48.622;9.230;2024-02-26T00:48:58;95995.22;;;5.17;96.19
8894;BME280;4483;48.622;9.230;2024-02-26T00:51:25;96008.44;;;5.25;96.16
8894;BME280;4483;48.622;9.230;2024-02-26T00:53:54;96000.09;;;5.22;95.58
8894;BME280;4483;48.622;9.230;2024-02-26T00:56:21;95992.38;;;5.23;95.92
8894;BME280;4483;48.622;9.230;2024-02-26T00:58:48;95994.00;;;5.24;96.36
8894;BME280;4483;48.622;9.230;2024-02-26T01:01:14;95977.13;;;5.22;96.17
8894;BME280;4483;48.622;9.230;2024-02-26T01:03:41;95979.59;;;5.23;96.82
8894;BME280;4483;48.622;9.230;2024-02-26T01:06:08;96002.50;;;5.25;96.85
8894;BME280;4483;48.622;9.230;2024-02-26T01:08:34;96004.53;;;5.18;97.47
8894;BME280;4483;48.622;9.230;2024-02-26T01:11:04;96008.81;;;5.18;97.21
8894;BME280;4483;48.622;9.230;2024-02-26T01:13:30;96004.44;;;5.20;96.94
8894;BME280;4483;48.622;9.230;2024-02-26T01:15:57;96006.84;;;5.23;97.93
8894;BME280;4483;48.622;9.230;2024-02-26T01:18:24;95997.31;;;5.26;97.54
8894;BME280;4483;48.622;9.230;2024-02-26T01:20:50;95999.03;;;5.26;97.56
8894;BME280;4483;48.622;9.230;2024-02-26T01:23:19;95995.59;;;5.27;97.73
8894;BME280;4483;48.622;9.230;2024-02-26T01:25:46;96013.84;;;5.36;98.07
8894;BME280;4483;48.622;9.230;2024-02-26T01:28:15;96000.69;;;5.27;97.77
8894;BME280;4483;48.622;9.230;2024-02-26T01:30:41;96001.66;;;5.24;97.68
8894;BME280;4483;48.622;9.230;2024-02-26T01:33:08;96005.97;;;5.24;98.19
8894;BME280;4483;48.622;9.230;2024-02-26T01:35:34;95996.63;;;5.23;97.91
8894;BME280;4483;48.622;9.230;2024-02-26T01:38:01;96011.78;;;5.26;98.59
8894;BME280;4483;48.622;9.230;2024-02-26T01:40:28;95997.31;;;5.26;98.31
8894;BME280;4483;48.622;9.230;2024-02-26T01:42:55;96012.50;;;5.29;98.71
8894;BME280;4483;48.622;9.230;2024-02-26T01:45:23;96008.19;;;5.30;98.86
8894;BME280;4483;48.622;9.230;2024-02-26T01:47:50;96015.72;;;5.33;99.10
8894;BME280;4483;48.622;9.230;2024-02-26T01:50:18;96019.09;;;5.33;98.82
8894;BME280;4483;48.622;9.230;2024-02-26T01:52:45;96014.34;;;5.26;98.93
8894;BME280;4483;48.622;9.230;2024-02-26T01:55:13;96025.09;;;5.32;99.04
8894;BME280;4483;48.622;9.230;2024-02-26T01:57:40;96025.03;;;5.34;99.31
8894;BME280;4483;48.622;9.230;2024-02-26T02:00:09;96026.69;;;5.35;99.19
8894;BME280;4483;48.622;9.230;2024-02-26T02:02:38;96025.69;;;5.37;99.62
8894;BME280;4483;48.622;9.230;2024-02-26T02:05:08;96027.50;;;5.35;98.89
8894;BME280;4483;48.622;9.230;2024-02-26T02:07:35;96032.75;;;5.32;99.02
8894;BME280;4483;48.622;9.230;2024-02-26T02:10:03;96030.13;;;5.34;99.44
8894;BME280;4483;48.622;9.230;2024-02-26T02:12:30;96027.56;;;5.34;99.97
8894;BME280;4483;48.622;9.230;2024-02-26T02:14:58;96038.38;;;5.39;100.00
8894;BME280;4483;48.622;9.230;2024-02-26T02:17:25;96029.28;;;5.33;100.00
8894;BME280;4483;48.622;9.230;2024-02-26T02:19:53;96036.16;;;5.33;100.00
8894;BME280;4483;48.622;9.230;2024-02-26T02:22:21;96036.00;;;5.36;100.00
8894;BME280;4483;48.622;9.230;2024-02-26T02:24:48;96036.66;;;5.39;100.00
8894;BME280;4483;48.622;9.230;2024-02-26T02:27:15;96031.41;;;5.42;100.00
8894;BME280;4483;48.622;9.230;2024-02-26T02:29:42;96033.66;;;5.48;100.00
8894;BME280;4483;48.622;9.230;2024-02-26T02:32:09;96047.03;;;5.53;100.00
8894;BME280;4483;48.622;9.230;2024-02-26T02:34:35;96049.16;;;5.45;100.00
8894;BME280;4483;48.622;9.230;2024-02-26T02:37:03;96043.19;;;5.45;100.00
8894;BME280;4483;48.622;9.230;2024-02-26T02:39:31;96049.66;;;5.52;100.00
8894;BME280;4483;48.622;9.230;2024-02-26T02:41:57;96037.19;;;5.46;100.00
8894;BME280;4483;48.622;9.230;2024-02-26T02:44:24;96036.28;;;5.47;100.00
8894;BME280;4483;48.622;9.230;2024-02-26T02:46:50;96026.09;;;5.47;100.00
8894;BME280;4483;48.622;9.230;2024-02-26T02:49:18;96021.66;;;5.50;100.00
8894;BME280;4483;48.622;9.230;2024-02-26T02:51:45;96016.63;;;5.49;100.00
8894;BME280;4483;48.622;9.230;2024-02-26T02:54:11;96032.81;;;5.48;100.00
8894;BME280;4483;48.622;9.230;2024-02-26T02:56:39;96024.56;;;5.43;100.00
8894;BME280;4483;48.622;9.230;2024-02-26T02:59:06;96030.28;;;5.48;100.00
8894;BME280;4483;48.622;9.230;2024-02-26T03:01:33;96026.66;;;5.52;100.00
8894;BME280;4483;48.622;9.230;2024-02-26T03:03:59;96012.34;;;5.49;100.00
8894;BME280;4483;48.622;9.230;2024-02-26T03:06:26;96029.09;;;5.55;100.00
8894;BME280;4483;48.622;9.230;2024-02-26T03:08:53;96030.66;;;5.57;100.00
8894;BME280;4483;48.622;9.230;2024-02-26T03:11:20;96029.09;;;5.55;100.00
8894;BME280;4483;48.622;9.230;2024-02-26T03:13:48;96016.25;;;5.56;100.00
8894;BME280;4483;48.622;9.230;2024-02-26T03:16:16;96023.00;;;5.57;100.00
8894;BME280;4483;48.622;9.230;2024-02-26T03:18:43;96014.44;;;5.58;100.00
8894;BME280;4483;48.622;9.230;2024-02-26T03:21:10;96008.78;;;5.52;100.00
8894;BME280;4483;48.622;9.230;2024-02-26T03:23:37;96023.00;;;5.57;100.00
8894;BME280;4483;48.622;9.230;2024-02-26T03:26:03;96015.41;;;5.56;100.00
8894;BME280;4483;48.622;9.230;2024-02-26T03:28:30;95998.75;;;5.49;100.00
8894;BME280;4483;48.622;9.230;2024-02-26T03:31:00;96005.56;;;5.48;100.00
8894;BME280;4483;48.622;9.230;2024-02-26T03:33:27;96004.69;;;5.49;100.00
8894;BME280;4483;48.622;9.230;2024-02-26T03:35:54;95997.75;;;5.51;100.00
8894;BME280;4483;48.622;9.230;2024-02-26T03:38:20;95995.13;;;5.53;100.00
8894;BME280;4483;48.622;9.230;2024-02-26T03:40:47;95982.28;;;5.54;100.00
8894;BME280;4483;48.622;9.230;2024-02-26T03:43:14;95985.69;;;5.55;100.00
8894;BME280;4483;48.622;9.230;2024-02-26T03:45:40;95988.06;;;5.58;100.00
8894;BME280;4483;48.622;9.230;2024-02-26T03:48:08;96000.59;;;5.62;100.00
8894;BME280;4483;48.622;9.230;2024-02-26T03:50:35;96020.22;;;5.62;100.00
8894;BME280;4483;48.622;9.230;2024-02-26T03:53:01;96017.78;;;5.59;100.00
8894;BME280;4483;48.622;9.230;2024-02-26T03:55:28;96021.19;;;5.59;100.00
8894;BME280;4483;48.622;9.230;2024-02-26T03:57:54;96010.00;;;5.62;100.00
8894;BME280;4483;48.622;9.230;2024-02-26T04:00:21;96004.06;;;5.61;100.00
8894;BME280;4483;48.622;9.230;2024-02-26T04:02:48;95981.91;;;5.62;100.00
8894;BME280;4483;48.622;9.230;2024-02-26T04:05:16;95984.38;;;5.63;100.00
8894;BME280;4483;48.622;9.230;2024-02-26T04:07:43;95997.06;;;5.65;100.00
8894;BME280;4483;48.622;9.230;2024-02-26T04:10:10;95993.84;;;5.61;100.00
8894;BME280;4483;48.622;9.230;2024-02-26T04:12:38;96007.06;;;5.69;100.00
8894;BME280;4483;48.622;9.230;2024-02-26T04:15:06;96010.34;;;5.71;100.00
8894;BME280;4483;48.622;9.230;2024-02-26T04:17:32;96014.41;;;5.75;100.00
8894;BME280;4483;48.622;9.230;2024-02-26T04:19:59;96021.09;;;5.78;100.00
8894;BME280;4483;48.622;9.230;2024-02-26T04:22:27;96023.47;;;5.81;100.00
8894;BME280;4483;48.622;9.230;2024-02-26T04:24:54;96024.31;;;5.81;100.00
8894;BME280;4483;48.622;9.230;2024-02-26T04:27:21;96027.72;;;5.82;100.00
8894;BME280;4483;48.622;9.230;2024-02-26T04:29:47;96036.75;;;5.89;100.00
8894;BME280;4483;48.622;9.230;2024-02-26T04:32:14;96039.31;;;5.89;100.00
8894;BME280;4483;48.622;9.230;2024-02-26T04:34:40;96049.44;;;5.90;100.00
8894;BME280;4483;48.622;9.230;2024-02-26T04:37:08;96033.22;;;5.91;100.00
8894;BME280;4483;48.622;9.230;2024-02-26T04:39:36;96016.22;;;5.90;100.00
8894;BME280;4483;48.622;9.230;2024-02-26T04:42:03;96020.44;;;5.91;100.00
8894;BME280;4483;48.622;9.230;2024-02-26T04:44:30;96026.34;;;5.92;100.00
8894;BME280;4483;48.622;9.230;2024-02-26T04:46:56;96022.06;;;5.92;100.00
8894;BME280;4483;48.622;9.230;2024-02-26T04:49:23;96011.94;;;5.91;100.00
8894;BME280;4483;48.622;9.230;2024-02-26T04:51:49;96023.00;;;5.91;100.00
8894;BME280;4483;48.622;9.230;2024-02-26T04:54:16;96020.50;;;5.90;100.00
8894;BME280;4483;48.622;9.230;2024-02-26T04:56:44;96024.84;;;5.88;100.00
8894;BME280;4483;48.622;9.230;2024-02-26T04:59:11;96016.47;;;5.86;100.00
8894;BME280;4483;48.622;9.230;2024-02-26T05:01:39;96010.22;;;5.91;100.00
8894;BME280;4483;48.622;9.230;2024-02-26T05:04:06;95996.59;;;5.91;100.00
8894;BME280;4483;48.622;9.230;2024-02-26T05:06:33;95994.94;;;5.90;100.00
8894;BME280;4483;48.622;9.230;2024-02-26T05:08:59;95998.16;;;5.93;100.00
8894;BME280;4483;48.622;9.230;2024-02-26T05:11:26;96002.47;;;5.93;100.00
8894;BME280;4483;48.622;9.230;2024-02-26T05:13:54;95999.25;;;5.89;100.00
8894;BME280;4483;48.622;9.230;2024-02-26T05:16:21;95997.66;;;5.87;100.00
8894;BME280;4483;48.622;9.230;2024-02-26T05:18:49;96000.22;;;5.87;100.00
8894;BME280;4483;48.622;9.230;2024-02-26T05:21:16;95995.84;;;5.89;100.00
8894;BME280;4483;48.622;9.230;2024-02-26T05:23:43;96010.44;;;5.87;100.00
8894;BME280;4483;48.622;9.230;2024-02-26T05:26:10;96018.19;;;5.85;100.00
8894;BME280;4483;48.622;9.230;2024-02-26T05:28:37;96032.53;;;5.88;100.00
8894;BME280;4483;48.622;9.230;2024-02-26T05:31:06;96039.59;;;5.83;100.00
8894;BME280;4483;48.622;9.230;2024-02-26T05:33:32;96034.53;;;5.81;100.00
8894;BME280;4483;48.622;9.230;2024-02-26T05:35:59;96044.72;;;5.83;100.00
8894;BME280;4483;48.622;9.230;2024-02-26T05:38:29;96039.47;;;5.86;100.00
8894;BME280;4483;48.622;9.230;2024-02-26T05:40:56;96053.66;;;5.91;100.00
8894;BME280;4483;48.622;9.230;2024-02-26T05:43:24;96046.88;;;5.90;100.00
8894;BME280;4483;48.622;9.230;2024-02-26T05:45:51;96046.06;;;5.90;100.00
8894;BME280;4483;48.622;9.230;2024-02-26T05:48:19;96023.31;;;5.85;100.00
8894;BME280;4483;48.622;9.230;2024-02-26T05:50:46;96037.50;;;5.91;100.00
8894;BME280;4483;48.622;9.230;2024-02-26T05:53:13;96036.84;;;5.87;100.00
8894;BME280;4483;48.622;9.230;2024-02-26T05:55:40;96038.72;;;5.84;100.00
8894;BME280;4483;48.622;9.230;2024-02-26T05:58:06;96043.03;;;5.82;100.00
8894;BME280;4483;48.622;9.230;2024-02-26T06:00:33;96042.91;;;5.85;100.00
8894;BME280;4483;48.622;9.230;2024-02-26T06:02:59;96044.63;;;5.84;100.00
8894;BME280;4483;48.622;9.230;2024-02-26T06:05:28;96056.59;;;5.84;100.00
8894;BME280;4483;48.622;9.230;2024-02-26T06:07:55;96065.16;;;5.83;100.00
8894;BME280;4483;48.622;9.230;2024-02-26T06:10:22;96072.94;;;5.80;100.00
8894;BME280;4483;48.622;9.230;2024-02-26T06:12:48;96074.00;;;5.76;100.00
8894;BME280;4483;48.622;9.230;2024-02-26T06:15:15;96070.69;;;5.74;100.00
8894;BME280;4483;48.622;9.230;2024-02-26T06:17:42;96058.84;;;5.73;100.00
8894;BME280;4483;48.622;9.230;2024-02-26T06:20:09;96068.22;;;5.72;100.00
8894;BME280;4483;48.622;9.230;2024-02-26T06:22:40;96059.72;;;5.72;100.00
8894;BME280;4483;48.622;9.230;2024-02-26T06:25:07;96059.63;;;5.73;100.00
8894;BME280;4483;48.622;9.230;2024-02-26T06:27:34;96063.03;;;5.74;100.00
8894;BME280;4483;48.622;9.230;2024-02-26T06:30:01;96073.41;;;5.71;100.00
8894;BME280;4483;48.622;9.230;2024-02-26T06:32:28;96075.22;;;5.69;100.00
8894;BME280;4483;48.622;9.230;2024-02-26T06:34:54;96088.75;;;5.71;100.00
8894;BME280;4483;48.622;9.230;2024-02-26T06:37:21;96073.63;;;5.66;100.00
8894;BME280;4483;48.622;9.230;2024-02-26T06:39:49;96081.38;;;5.65;100.00
8894;BME280;4483;48.622;9.230;2024-02-26T06:42:17;96102.25;;;5.73;100.00
8894;BME280;4483;48.622;9.230;2024-02-26T06:44:43;96107.59;;;5.68;100.00
8894;BME280;4483;48.622;9.230;2024-02-26T06:47:10;96122.63;;;5.74;100.00
8894;BME280;4483;48.622;9.230;2024-02-26T06:49:37;96121.72;;;5.75;100.00
8894;BME280;4483;48.622;9.230;2024-02-26T06:52:03;96133.53;;;5.78;100.00
8894;BME280;4483;48.622;9.230;2024-02-26T06:54:31;96135.91;;;5.81;100.00
8894;BME280;4483;48.622;9.230;2024-02-26T06:56:59;96138.22;;;5.87;100.00
8894;BME280;4483;48.622;9.230;2024-02-26T06:59:26;96144.84;;;5.91;100.00
8894;BME280;4483;48.622;9.230;2024-02-26T07:01:52;96147.06;;;5.97;100.00
8894;BME280;4483;48.622;9.230;2024-02-26T07:04:19;96147.69;;;6.02;100.00
8894;BME280;4483;48.622;9.230;2024-02-26T07:06:46;96140.69;;;6.05;100.00
8894;BME280;4483;48.622;9.230;2024-02-26T07:09:13;96145.72;;;6.07;100.00
8894;BME280;4483;48.622;9.230;2024-02-26T07:11:41;96147.31;;;6.09;100.00
8894;BME280;4483;48.622;9.230;2024-02-26T07:14:11;96143.09;;;6.08;100.00
8894;BME280;4483;48.622;9.230;2024-02-26T07:16:38;96139.94;;;6.03;100.00
8894;BME280;4483;48.622;9.230;2024-02-26T07:19:05;96149.19;;;6.06;100.00
8894;BME280;4483;48.622;9.230;2024-02-26T07:21:31;96153.47;;;6.05;100.00
8894;BME280;4483;48.622;9.230;2024-02-26T07:23:59;96158.50;;;6.07;100.00
8894;BME280;4483;48.622;9.230;2024-02-26T07:26:25;96166.19;;;6.07;100.00
8894;BME280;4483;48.622;9.230;2024-02-26T07:28:52;96165.34;;;6.06;100.00
8894;BME280;4483;48.622;9.230;2024-02-26T07:31:20;96157.59;;;6.08;100.00
8894;BME280;4483;48.622;9.230;2024-02-26T07:33:46;96159.94;;;6.13;100.00
8894;BME280;4483;48.622;9.230;2024-02-26T07:36:13;96158.88;;;6.17;100.00
8894;BME280;4483;48.622;9.230;2024-02-26T07:38:40;96173.97;;;6.21;100.00
8894;BME280;4483;48.622;9.230;2024-02-26T07:41:06;96163.63;;;6.24;100.00
8894;BME280;4483;48.622;9.230;2024-02-26T07:43:33;96162.69;;;6.25;100.00
8894;BME280;4483;48.622;9.230;2024-02-26T07:46:00;96168.41;;;6.30;100.00
8894;BME280;4483;48.622;9.230;2024-02-26T07:48:28;96170.81;;;6.33;100.00
8894;BME280;4483;48.622;9.230;2024-02-26T07:50:54;96176.53;;;6.38;100.00
8894;BME280;4483;48.622;9.230;2024-02-26T07:53:21;96188.25;;;6.42;100.00
8894;BME280;4483;48.622;9.230;2024-02-26T07:55:48;96180.44;;;6.45;100.00
8894;BME280;4483;48.622;9.230;2024-02-26T07:58:15;96181.00;;;6.50;100.00
8894;BME280;4483;48.622;9.230;2024-02-26T08:00:41;96186.66;;;6.57;100.00
8894;BME280;4483;48.622;9.230;2024-02-26T08:03:09;96183.03;;;6.61;100.00
8894;BME280;4483;48.622;9.230;2024-02-26T08:05:37;96174.38;;;6.63;100.00
8894;BME280;4483;48.622;9.230;2024-02-26T08:08:06;96181.75;;;6.69;100.00
8894;BME280;4483;48.622;9.230;2024-02-26T08:10:32;96180.81;;;6.70;100.00
8894;BME280;4483;48.622;9.230;2024-02-26T08:12:59;96176.44;;;6.72;100.00
8894;BME280;4483;48.622;9.230;2024-02-26T08:15:30;96172.16;;;6.73;100.00
8894;BME280;4483;48.622;9.230;2024-02-26T08:17:57;96161.94;;;6.73;100.00
8894;BME280;4483;48.622;9.230;2024-02-26T08:20:25;96173.34;;;6.83;100.00
8894;BME280;4483;48.622;9.230;2024-02-26T08:22:53;96162.94;;;6.86;100.00
8894;BME280;4483;48.622;9.230;2024-02-26T08:25:20;96151.00;;;6.86;100.00
8894;BME280;4483;48.622;9.230;2024-02-26T08:27:46;96159.69;;;6.99;100.00
8894;BME280;4483;48.622;9.230;2024-02-26T08:30:14;96148.09;;;7.08;100.00
8894;BME280;4483;48.622;9.230;2024-02-26T08:32:42;96156.13;;;7.18;100.00
8894;BME280;4483;48.622;9.230;2024-02-26T08:35:09;96151.59;;;7.23;100.00
8894;BME280;4483;48.622;9.230;2024-02-26T08:37:36;96157.94;;;7.31;100.00
8894;BME280;4483;48.622;9.230;2024-02-26T08:40:05;96159.34;;;7.37;100.00
8894;BME280;4483;48.622;9.230;2024-02-26T08:42:32;96163.06;;;7.47;100.00
8894;BME280;4483;48.622;9.230;2024-02-26T08:44:59;96159.34;;;7.52;100.00
8894;BME280;4483;48.622;9.230;2024-02-26T08:47:26;96157.25;;;7.59;100.00
8894;BME280;4483;48.622;9.230;2024-02-26T08:49:53;96155.44;;;7.61;100.00
8894;BME280;4483;48.622;9.230;2024-02-26T08:52:20;96149.88;;;7.68;100.00
8894;BME280;4483;48.622;9.230;2024-02-26T08:54:47;96153.00;;;7.73;100.00
8894;BME280;4483;48.622;9.230;2024-02-26T08:57:15;96141.59;;;7.79;100.00
8894;BME280;4483;48.622;9.230;2024-02-26T08:59:41;96144.56;;;7.87;100.00
8894;BME280;4483;48.622;9.230;2024-02-26T09:02:09;96141.72;;;7.91;100.00
8894;BME280;4483;48.622;9.230;2024-02-26T09:04:36;96134.75;;;7.93;100.00
8894;BME280;4483;48.622;9.230;2024-02-26T09:07:02;96140.53;;;7.97;100.00
8894;BME280;4483;48.622;9.230;2024-02-26T09:09:29;96146.59;;;7.96;100.00
8894;BME280;4483;48.622;9.230;2024-02-26T09:11:56;96151.53;;;7.99;100.00
8894;BME280;4483;48.622;9.230;2024-02-26T09:14:23;96144.69;;;7.99;100.00
8894;BME280;4483;48.622;9.230;2024-02-26T09:16:50;96147.16;;;8.01;100.00
8894;BME280;4483;48.622;9.230;2024-02-26T09:19:17;96152.09;;;8.04;100.00
8894;BME280;4483;48.622;9.230;2024-02-26T09:21:44;96164.84;;;8.05;100.00
8894;BME280;4483;48.622;9.230;2024-02-26T09:24:11;96166.50;;;8.06;100.00
8894;BME280;4483;48.622;9.230;2024-02-26T09:26:38;96162.00;;;8.10;100.00
8894;BME280;4483;48.622;9.230;2024-02-26T09:29:04;96159.19;;;8.14;100.00
8894;BME280;4483;48.622;9.230;2024-02-26T09:31:34;96154.72;;;8.18;100.00
8894;BME280;4483;48.622;9.230;2024-02-26T09:34:01;96157.66;;;8.26;100.00
8894;BME280;4483;48.622;9.230;2024-02-26T09:36:28;96149.72;;;8.31;100.00
8894;BME280;4483;48.622;9.230;2024-02-26T09:38:54;96154.50;;;8.37;100.00
8894;BME280;4483;48.622;9.230;2024-02-26T09:41:21;96166.84;;;8.44;100.00
8894;BME280;4483;48.622;9.230;2024-02-26T09:43:48;96169.81;;;8.52;100.00
8894;BME280;4483;48.622;9.230;2024-02-26T09:46:15;96173.75;;;8.58;98.36
8894;BME280;4483;48.622;9.230;2024-02-26T09:48:47;96175.69;;;8.68;100.00
8894;BME280;4483;48.622;9.230;2024-02-26T09:51:14;96171.47;;;8.81;100.00
8894;BME280;4483;48.622;9.230;2024-02-26T09:53:43;96165.41;;;8.96;98.71
8894;BME280;4483;48.622;9.230;2024-02-26T09:56:11;96172.75;;;9.17;94.40
8894;BME280;4483;48.622;9.230;2024-02-26T09:58:38;96183.16;;;9.42;94.61
8894;BME280;4483;48.622;9.230;2024-02-26T10:01:10;96185.75;;;9.68;87.81
8894;BME280;4483;48.622;9.230;2024-02-26T10:03:39;96178.47;;;10.01;89.10
8894;BME280;4483;48.622;9.230;2024-02-26T10:06:08;96187.00;;;10.41;89.83
8894;BME280;4483;48.622;9.230;2024-02-26T10:08:35;96190.03;;;10.85;89.16
8894;BME280;4483;48.622;9.230;2024-02-26T10:11:03;96186.78;;;11.20;82.79
8894;BME280;4483;48.622;9.230;2024-02-26T10:13:29;96188.91;;;11.38;85.23
8894;BME280;4483;48.622;9.230;2024-02-26T10:15:56;96195.63;;;11.41;83.11
8894;BME280;4483;48.622;9.230;2024-02-26T10:18:23;96199.09;;;11.40;81.09
8894;BME280;4483;48.622;9.230;2024-02-26T10:20:59;96193.41;;;11.47;81.07
8894;BME280;4483;48.622;9.230;2024-02-26T10:23:27;96191.16;;;11.55;79.58
8894;BME280;4483;48.622;9.230;2024-02-26T10:25:54;96190.91;;;11.71;77.59
8894;BME280;4483;48.622;9.230;2024-02-26T10:28:22;96188.88;;;11.87;75.71
8894;BME280;4483;48.622;9.230;2024-02-26T10:30:51;96180.22;;;11.88;68.92
8894;BME280;4483;48.622;9.230;2024-02-26T10:33:18;96166.53;;;11.98;71.58
8894;BME280;4483;48.622;9.230;2024-02-26T10:35:45;96170.78;;;12.10;70.86
8894;BME280;4483;48.622;9.230;2024-02-26T10:38:12;96173.22;;;12.01;66.69
8894;BME280;4483;48.622;9.230;2024-02-26T10:40:44;96179.75;;;11.94;69.96
8894;BME280;4483;48.622;9.230;2024-02-26T10:43:10;96191.03;;;11.93;71.29
8894;BME280;4483;48.622;9.230;2024-02-26T10:45:38;96201.94;;;11.96;72.05
8894;BME280;4483;48.622;9.230;2024-02-26T10:48:09;96203.59;;;11.97;71.41
8894;BME280;4483;48.622;9.230;2024-02-26T10:50:38;96190.19;;;11.92;68.45
8894;BME280;4483;48.622;9.230;2024-02-26T10:53:07;96188.38;;;11.82;65.18
8894;BME280;4483;48.622;9.230;2024-02-26T10:55:40;96192.41;;;11.86;68.55
8894;BME280;4483;48.622;9.230;2024-02-26T10:58:08;96191.13;;;11.91;69.04
8894;BME280;4483;48.622;9.230;2024-02-26T11:00:37;96177.69;;;11.99;69.81
8894;BME280;4483;48.622;9.230;2024-02-26T11:03:04;96178.88;;;12.06;69.76
8894;BME280;4483;48.622;9.230;2024-02-26T11:05:33;96189.63;;;12.24;69.75
8894;BME280;4483;48.622;9.230;2024-02-26T11:08:00;96197.41;;;12.35;69.23
8894;BME280;4483;48.622;9.230;2024-02-26T11:10:29;96183.44;;;12.37;67.75
8894;BME280;4483;48.622;9.230;2024-02-26T11:12:59;96196.84;;;12.42;67.27
8894;BME280;4483;48.622;9.230;2024-02-26T11:15:28;96186.50;;;12.42;68.17
8894;BME280;4483;48.622;9.230;2024-02-26T11:17:58;96193.69;;;12.50;67.67
8894;BME280;4483;48.622;9.230;2024-02-26T11:20:28;96191.22;;;12.48;66.04
8894;BME280;4483;48.622;9.230;2024-02-26T11:22:55;96186.75;;;12.39;63.72
8894;BME280;4483;48.622;9.230;2024-02-26T11:25:22;96190.25;;;12.38;64.96
8894;BME280;4483;48.622;9.230;2024-02-26T11:27:52;96194.97;;;12.44;65.40
8894;BME280;4483;48.622;9.230;2024-02-26T11:30:23;96188.19;;;12.54;64.94
8894;BME280;4483;48.622;9.230;2024-02-26T11:32:53;96198.31;;;12.68;64.33
8894;BME280;4483;48.622;9.230;2024-02-26T11:35:20;96207.00;;;12.78;64.94
8894;BME280;4483;48.622;9.230;2024-02-26T11:37:53;96194.34;;;12.75;63.61
8894;BME280;4483;48.622;9.230;2024-02-26T11:40:22;96207.00;;;12.78;64.27
8894;BME280;4483;48.622;9.230;2024-02-26T11:42:48;96203.38;;;12.81;64.50
8894;BME280;4483;48.622;9.230;2024-02-26T11:45:51;96202.81;;;12.88;64.43
8894;BME280;4483;48.622;9.230;2024-02-26T11:48:28;96174.72;;;12.84;64.21
8894;BME280;4483;48.622;9.230;2024-02-26T11:50:55;96195.78;;;13.01;64.45
8894;BME280;4483;48.622;9.230;2024-02-26T11:53:25;96196.03;;;13.09;63.23
8894;BME280;4483;48.622;9.230;2024-02-26T11:56:19;96200.88;;;13.25;63.35
8894;BME280;4483;48.622;9.230;2024-02-26T11:58:47;96186.38;;;13.45;62.47
8894;BME280;4483;48.622;9.230;2024-02-26T12:01:37;96196.81;;;13.76;61.97
8894;BME280;4483;48.622;9.230;2024-02-26T12:04:06;96195.66;;;14.01;59.10
8894;BME280;4483;48.622;9.230;2024-02-26T12:06:41;96202.19;;;14.27;58.67
8894;BME280;4483;48.622;9.230;2024-02-26T12:09:08;96199.00;;;14.55;58.67
8894;BME280;4483;48.622;9.230;2024-02-26T12:11:37;96196.22;;;14.88;58.78
8894;BME280;4483;48.622;9.230;2024-02-26T12:14:05;96201.69;;;15.16;56.70
8894;BME280;4483;48.622;9.230;2024-02-26T12:16:36;96202.72;;;15.34;57.34
8894;BME280;4483;48.622;9.230;2024-02-26T12:19:06;96201.13;;;15.42;56.88
8894;BME280;4483;48.622;9.230;2024-02-26T12:21:34;96203.34;;;15.47;55.64
8894;BME280;4483;48.622;9.230;2024-02-26T12:24:11;96204.41;;;15.44;56.11
8894;BME280;4483;48.622;9.230;2024-02-26T12:26:38;96198.50;;;15.33;54.38
8894;BME280;4483;48.622;9.230;2024-02-26T12:29:06;96205.91;;;15.17;54.90
8894;BME280;4483;48.622;9.230;2024-02-26T12:31:33;96199.31;;;15.03;54.98
8894;BME280;4483;48.622;9.230;2024-02-26T12:34:02;96210.69;;;14.91;54.21
8894;BME280;4483;48.622;9.230;2024-02-26T12:36:30;96205.63;;;14.89;56.09
8894;BME280;4483;48.622;9.230;2024-02-26T12:38:57;96199.38;;;14.92;54.90
8894;BME280;4483;48.622;9.230;2024-02-26T12:41:26;96204.72;;;15.00;55.78
8894;BME280;4483;48.622;9.230;2024-02-26T12:43:53;96200.72;;;15.17;56.25
8894;BME280;4483;48.622;9.230;2024-02-26T12:46:20;96210.13;;;15.38;56.13
8894;BME280;4483;48.622;9.230;2024-02-26T12:48:47;96198.78;;;15.39;53.65
8894;BME280;4483;48.622;9.230;2024-02-26T12:51:16;96205.03;;;15.37;53.74
8894;BME280;4483;48.622;9.230;2024-02-26T12:53:45;96200.41;;;15.31;54.40
8894;BME280;4483;48.622;9.230;2024-02-26T12:56:12;96204.34;;;15.25;54.63
8894;BME280;4483;48.622;9.230;2024-02-26T12:58:39;96215.66;;;15.24;54.83
8894;BME280;4483;48.622;9.230;2024-02-26T13:01:06;96208.09;;;15.11;53.99
8894;BME280;4483;48.622;9.230;2024-02-26T13:03:34;96210.75;;;15.00;53.85
8894;BME280;4483;48.622;9.230;2024-02-26T13:06:03;96213.97;;;14.93;55.08
8894;BME280;4483;48.622;9.230;2024-02-26T13:08:32;96212.59;;;14.89;54.88
8894;BME280;4483;48.622;9.230;2024-02-26T13:11:00;96207.38;;;14.79;55.51
8894;BME280;4483;48.622;9.230;2024-02-26T13:13:27;96199.59;;;14.79;55.27
8894;BME280;4483;48.622;9.230;2024-02-26T13:16:01;96212.03;;;14.85;55.69
8894;BME280;4483;48.622;9.230;2024-02-26T13:18:28;96213.00;;;14.84;55.45
8894;BME280;4483;48.622;9.230;2024-02-26T13:21:07;96211.47;;;14.82;55.40
8894;BME280;4483;48.622;9.230;2024-02-26T13:23:33;96208.88;;;14.82;55.88
8894;BME280;4483;48.622;9.230;2024-02-26T13:26:01;96208.63;;;14.85;54.93
8894;BME280;4483;48.622;9.230;2024-02-26T13:28:28;96214.75;;;14.84;54.32